KBFM/BFM METAR and TAF weather

Enter ICAO airport designator
Station Type Date Time Source
KBFM METAR 2022/08/12 14:53 UTC NOAA

KBFM 121453Z 20006KT 10SM -RA FEW010 SCT023 BKN049 27/23 A3007 RMK AO2 SLP182 P0000 60000 T02670228 51003


Station Type Date Time Source
KBFM Decoded METAR 2022/08/12 14:53 UTC NOAA

MOBILE DOWNTOWN AIRPORT, AL, United States (KBFM) 30-38N 88-04W 20M
Aug 12, 2022 - 10:53 AM EDT / 2022.08.12 1453 UTC
Wind: from the SSW (200 degrees) at 7 MPH (6 KT):0
Visibility: 10 mile(s):0
Sky conditions: mostly cloudy
Weather: light rain
Precipitation last hour: A trace
Temperature: 80.1 F (26.7 C)
Dew Point: 73.0 F (22.8 C)
Relative Humidity: 79%
Pressure (altimeter): 30.07 in. Hg (1018 hPa)
Pressure tendency: 0.01 inches (0.3 hPa) higher than three hours ago
ob: KBFM 121453Z 20006KT 10SM -RA FEW010 SCT023 BKN049 27/23 A3007 RMK AO2 SLP182 P0000 60000 T02670228 51003
cycle: 15

Station Type Date Time Source
KBFM TAF 2022/08/12 12:30 UTC NOAA

TAF KBFM 121128Z 1212/1312 23004KT 6SM -RA VCSH BKN015 BKN070 BKN110
FM121500 24002KT 5SM -TSRA BKN025CB BKN040
FM121700 17007KT P6SM VCTS SCT035CB BKN080
FM130300 VRB04KT P6SM SCT080 BKN110

Example: see airport list